createdAt,value
2023-01-02T00:02:07.611Z,18.50
2023-01-02T00:04:34.314Z,18.40
2023-01-02T00:07:01.163Z,18.40
2023-01-02T00:09:27.907Z,18.40
2023-01-02T00:11:54.668Z,18.40
2023-01-02T00:14:21.348Z,18.30
2023-01-02T00:16:48.100Z,18.30
2023-01-02T00:19:14.835Z,18.30
2023-01-02T00:21:41.535Z,18.30
2023-01-02T00:24:08.655Z,18.20
2023-01-02T00:26:35.383Z,18.20
2023-01-02T00:29:02.201Z,18.20
2023-01-02T00:31:28.976Z,18.20
2023-01-02T00:33:55.682Z,18.20
2023-01-02T00:36:22.324Z,18.10
2023-01-02T00:38:49.116Z,18.10
2023-01-02T00:41:17.294Z,18.10
2023-01-02T00:43:43.973Z,18.10
2023-01-02T00:46:12.252Z,18.00
2023-01-02T00:48:40.114Z,18.00
2023-01-02T00:51:07.078Z,18.00
2023-01-02T00:53:35.030Z,18.00
2023-01-02T00:56:01.806Z,18.00
2023-01-02T00:58:28.486Z,17.90
2023-01-02T01:00:55.293Z,17.90
2023-01-02T01:03:22.089Z,17.90
2023-01-02T01:05:48.819Z,17.90
2023-01-02T01:08:15.792Z,17.80
2023-01-02T01:10:42.495Z,17.80
2023-01-02T01:13:09.250Z,17.80
2023-01-02T01:15:35.991Z,17.80
2023-01-02T01:18:02.861Z,17.80
2023-01-02T01:20:29.701Z,17.80
2023-01-02T01:22:56.584Z,17.70
2023-01-02T01:25:23.323Z,17.70
2023-01-02T01:27:53.356Z,17.70
2023-01-02T01:30:20.169Z,17.70
2023-01-02T01:32:46.920Z,17.60
2023-01-02T01:35:13.770Z,17.70
2023-01-02T01:37:40.530Z,17.60
2023-01-02T01:40:07.941Z,17.60
2023-01-02T01:42:35.314Z,17.60
2023-01-02T01:45:03.037Z,17.60
2023-01-02T01:47:47.304Z,17.60
2023-01-02T01:50:21.857Z,17.50
2023-01-02T01:52:51.917Z,17.50
2023-01-02T01:55:20.960Z,17.50
2023-01-02T01:57:59.148Z,17.50
2023-01-02T02:00:25.892Z,17.50
2023-01-02T02:02:59.054Z,17.50
2023-01-02T02:05:29.559Z,17.40
2023-01-02T02:08:23.607Z,17.40
2023-01-02T02:10:51.422Z,17.40
2023-01-02T02:13:19.124Z,17.40
2023-01-02T02:15:58.959Z,17.40
2023-01-02T02:18:40.089Z,17.30
2023-01-02T02:21:26.046Z,17.30
2023-01-02T02:24:20.799Z,17.30
2023-01-02T02:26:59.084Z,17.30
2023-01-02T02:29:46.893Z,17.30
2023-01-02T02:32:32.250Z,17.30
2023-01-02T02:35:11.025Z,17.30
2023-01-02T02:37:41.116Z,17.30
2023-01-02T02:40:18.974Z,17.30
2023-01-02T02:42:57.541Z,17.20
2023-01-02T02:45:40.344Z,17.20
2023-01-02T02:48:30.839Z,17.20
2023-01-02T02:51:33.225Z,17.20
2023-01-02T02:54:05.329Z,17.20
2023-01-02T02:56:32.537Z,17.20
2023-01-02T02:58:59.744Z,17.10
2023-01-02T03:01:30.519Z,17.10
2023-01-02T03:03:58.134Z,17.10
2023-01-02T03:06:37.050Z,17.10
2023-01-02T03:09:18.537Z,17.10
2023-01-02T03:12:28.682Z,17.10
2023-01-02T03:15:18.265Z,17.10
2023-01-02T03:17:53.912Z,17.10
2023-01-02T03:20:24.349Z,17.10
2023-01-02T03:22:58.026Z,17.10
2023-01-02T03:25:25.593Z,17.10
2023-01-02T03:27:58.264Z,17.00
2023-01-02T03:30:25.162Z,17.00
2023-01-02T03:33:03.638Z,17.00
2023-01-02T03:35:40.260Z,17.00
2023-01-02T03:38:11.354Z,17.00
2023-01-02T03:40:45.758Z,17.00
2023-01-02T03:43:18.203Z,17.00
2023-01-02T03:45:51.886Z,16.90
2023-01-02T03:48:31.069Z,16.90
2023-01-02T03:50:59.969Z,16.90
2023-01-02T03:53:28.341Z,16.90
2023-01-02T03:56:23.632Z,16.90
2023-01-02T03:58:53.320Z,16.90
2023-01-02T04:01:48.773Z,16.90
2023-01-02T04:04:25.131Z,16.90
2023-01-02T04:06:57.276Z,16.90
2023-01-02T04:09:26.934Z,16.90
2023-01-02T04:11:59.930Z,16.80
2023-01-02T04:14:34.570Z,16.80
2023-01-02T04:17:04.412Z,16.80
2023-01-02T04:19:49.145Z,16.80
2023-01-02T04:22:24.413Z,16.80
2023-01-02T04:24:59.246Z,16.80
2023-01-02T04:27:33.564Z,16.80
2023-01-02T04:30:00.396Z,16.80
2023-01-02T04:32:35.190Z,16.80
2023-01-02T04:35:07.281Z,16.80
2023-01-02T04:37:39.843Z,16.80
2023-01-02T04:40:11.302Z,16.70
2023-01-02T04:42:38.023Z,16.70
2023-01-02T04:45:05.310Z,16.70
2023-01-02T04:47:32.027Z,16.70
2023-01-02T04:49:58.739Z,16.70
2023-01-02T04:52:25.509Z,16.70
2023-01-02T04:54:52.170Z,16.70
2023-01-02T04:57:18.883Z,16.70
2023-01-02T04:59:45.556Z,16.70
2023-01-02T05:02:12.503Z,16.70
2023-01-02T05:04:39.289Z,16.70
2023-01-02T05:07:06.241Z,16.70
2023-01-02T05:09:33.004Z,16.60
2023-01-02T05:11:59.772Z,16.60
2023-01-02T05:14:26.565Z,16.60
2023-01-02T05:16:53.456Z,16.60
2023-01-02T05:19:20.133Z,16.60
2023-01-02T05:22:05.516Z,16.60
2023-01-02T05:24:32.260Z,16.60
2023-01-02T05:26:58.971Z,16.50
2023-01-02T05:29:25.729Z,16.50
2023-01-02T05:31:52.447Z,16.50
2023-01-02T05:34:19.172Z,16.50
2023-01-02T05:36:46.137Z,16.50
2023-01-02T05:39:13.956Z,16.50
2023-01-02T05:41:41.684Z,16.50
2023-01-02T05:44:10.082Z,16.50
2023-01-02T05:46:38.184Z,16.50
2023-01-02T05:49:09.306Z,16.50
2023-01-02T05:51:36.052Z,16.50
2023-01-02T05:54:03.844Z,16.50
2023-01-02T05:56:31.324Z,16.50
2023-01-02T05:58:58.546Z,16.50
2023-01-02T06:01:27.850Z,16.40
2023-01-02T06:03:57.545Z,16.40
2023-01-02T06:06:33.592Z,16.40
2023-01-02T06:09:01.059Z,16.40
2023-01-02T06:11:29.145Z,16.40
2023-01-02T06:13:56.831Z,16.40
2023-01-02T06:16:24.614Z,16.40
2023-01-02T06:18:51.794Z,16.30
2023-01-02T06:21:20.807Z,16.40
2023-01-02T06:23:48.188Z,16.40
2023-01-02T06:26:17.803Z,16.40
2023-01-02T06:28:45.287Z,16.40
2023-01-02T06:31:14.387Z,16.30
2023-01-02T06:33:41.565Z,16.30
2023-01-02T06:36:16.917Z,16.30
2023-01-02T06:38:45.229Z,16.30
2023-01-02T06:41:13.429Z,16.30
2023-01-02T06:43:47.993Z,16.30
2023-01-02T06:46:17.016Z,16.30
2023-01-02T06:48:44.292Z,16.30
2023-01-02T06:51:16.740Z,16.30
2023-01-02T06:53:44.371Z,16.30
2023-01-02T06:56:12.720Z,16.30
2023-01-02T06:58:39.988Z,16.30
2023-01-02T07:01:09.480Z,16.30
2023-01-02T07:03:36.333Z,16.20
2023-01-02T07:06:07.320Z,16.20
2023-01-02T07:08:34.132Z,16.20
2023-01-02T07:11:26.878Z,16.20
2023-01-02T07:13:54.642Z,16.20
2023-01-02T07:16:23.094Z,16.20
2023-01-02T07:18:52.817Z,16.20
2023-01-02T07:21:20.310Z,16.20
2023-01-02T07:23:47.139Z,16.20
2023-01-02T07:26:15.184Z,16.20
2023-01-02T07:28:41.928Z,16.20
2023-01-02T07:31:13.036Z,16.20
2023-01-02T07:33:41.280Z,16.20
2023-01-02T07:36:11.536Z,16.20
2023-01-02T07:38:39.199Z,16.20
2023-01-02T07:41:16.235Z,16.20
2023-01-02T07:43:44.755Z,16.20
2023-01-02T07:46:12.948Z,16.20
2023-01-02T07:48:39.787Z,16.10
2023-01-02T07:51:07.903Z,16.10
2023-01-02T07:53:35.627Z,16.10
2023-01-02T07:56:03.254Z,16.10
2023-01-02T07:58:30.734Z,16.10
2023-01-02T08:01:04.915Z,16.10
2023-01-02T08:03:32.341Z,16.10
2023-01-02T08:06:13.605Z,16.10
2023-01-02T08:08:40.825Z,16.10
2023-01-02T08:11:10.010Z,16.10
2023-01-02T08:13:36.799Z,16.10
2023-01-02T08:16:09.171Z,16.10
2023-01-02T08:18:36.314Z,16.10
2023-01-02T08:21:03.733Z,16.10
2023-01-02T08:23:31.182Z,16.10
2023-01-02T08:26:00.202Z,16.00
2023-01-02T08:28:27.589Z,16.10
2023-01-02T08:30:54.341Z,16.00
2023-01-02T08:33:21.542Z,16.00
2023-01-02T08:35:48.467Z,16.00
2023-01-02T08:38:15.266Z,16.00
2023-01-02T08:40:41.990Z,16.00
2023-01-02T08:43:11.823Z,16.00
2023-01-02T08:48:52.885Z,16.00
2023-01-02T08:51:30.947Z,16.00
2023-01-02T08:53:58.984Z,16.00
2023-01-02T08:56:30.625Z,16.00
2023-01-02T08:59:08.961Z,16.00
2023-01-02T09:01:36.740Z,16.00
2023-01-02T09:04:11.558Z,16.00
2023-01-02T09:06:39.233Z,16.00
2023-01-02T09:09:11.506Z,15.90
2023-01-02T09:11:46.472Z,15.90
2023-01-02T09:14:13.073Z,15.90
2023-01-02T09:16:39.913Z,15.90
2023-01-02T09:19:07.847Z,15.90
2023-01-02T09:21:34.651Z,15.90
2023-01-02T09:24:01.459Z,15.90
2023-01-02T09:26:28.202Z,15.90
2023-01-02T09:28:54.979Z,15.90
2023-01-02T09:31:22.552Z,15.90
2023-01-02T09:33:49.951Z,15.90
2023-01-02T09:36:18.900Z,15.90
2023-01-02T09:38:58.033Z,15.90
2023-01-02T09:41:37.986Z,15.90
2023-01-02T09:44:32.055Z,15.90
2023-01-02T09:47:07.097Z,15.80
2023-01-02T09:49:50.123Z,15.90
2023-01-02T09:52:21.693Z,15.80
2023-01-02T09:54:51.696Z,15.80
2023-01-02T09:57:27.524Z,15.80
2023-01-02T10:00:06.163Z,15.80
2023-01-02T10:02:51.992Z,15.80
2023-01-02T10:05:40.505Z,15.80
2023-01-02T10:08:31.834Z,15.80
2023-01-02T10:11:10.190Z,15.80
2023-01-02T10:14:19.700Z,15.80
2023-01-02T10:16:50.474Z,15.80
2023-01-02T10:19:44.136Z,15.80
2023-01-02T10:22:17.434Z,15.80
2023-01-02T10:24:44.284Z,15.80
2023-01-02T10:27:21.186Z,15.80
2023-01-02T10:30:14.785Z,15.80
2023-01-02T10:32:47.716Z,15.80
2023-01-02T10:35:50.693Z,15.80
2023-01-02T10:38:46.204Z,15.80
2023-01-02T10:41:16.734Z,15.80
2023-01-02T10:43:54.439Z,15.80
2023-01-02T10:46:21.639Z,15.80
2023-01-02T10:48:52.213Z,15.70
2023-01-02T10:51:20.948Z,15.70
2023-01-02T10:54:03.732Z,15.70
2023-01-02T10:56:34.857Z,15.70
2023-01-02T10:59:02.178Z,15.70
2023-01-02T11:01:29.855Z,15.70
2023-01-02T11:03:57.571Z,15.70
2023-01-02T11:06:38.847Z,15.70
2023-01-02T11:09:22.465Z,15.70
2023-01-02T11:11:57.758Z,15.70
2023-01-02T11:14:35.311Z,15.70
2023-01-02T11:17:10.130Z,15.70
2023-01-02T11:19:51.996Z,15.70
2023-01-02T11:22:31.128Z,15.70
2023-01-02T11:25:03.992Z,15.70
2023-01-02T11:27:41.899Z,15.70
2023-01-02T11:30:24.941Z,15.70
2023-01-02T11:33:03.127Z,15.70
2023-01-02T11:35:51.085Z,15.70
2023-01-02T11:38:28.767Z,15.70
2023-01-02T11:41:00.113Z,15.70
2023-01-02T11:43:51.773Z,15.70
2023-01-02T11:46:35.453Z,15.70
2023-01-02T11:49:22.361Z,15.70
2023-01-02T11:51:58.883Z,15.70
2023-01-02T11:54:49.857Z,15.70
2023-01-02T11:57:44.722Z,15.60
2023-01-02T12:00:14.721Z,15.70
2023-01-02T12:02:44.461Z,15.70
2023-01-02T12:05:14.835Z,15.70
2023-01-02T12:07:45.449Z,15.70
2023-01-02T12:10:33.020Z,15.70
2023-01-02T12:13:37.370Z,15.70
2023-01-02T12:16:10.625Z,15.70
2023-01-02T12:18:51.802Z,15.60
2023-01-02T12:21:30.050Z,15.60
2023-01-02T12:24:15.578Z,15.60
2023-01-02T12:26:59.129Z,15.60
2023-01-02T12:29:46.422Z,15.60
2023-01-02T12:32:33.608Z,15.60
2023-01-02T12:35:43.708Z,15.60
2023-01-02T12:38:16.880Z,15.60
2023-01-02T12:41:07.451Z,15.60
2023-01-02T12:43:57.054Z,15.60
2023-01-02T12:47:08.182Z,15.60
2023-01-02T12:50:13.733Z,15.60
2023-01-02T12:52:58.585Z,15.60
2023-01-02T12:56:02.884Z,15.60
2023-01-02T12:58:55.866Z,15.60
2023-01-02T13:01:51.584Z,15.60
2023-01-02T13:04:26.267Z,15.60
2023-01-02T13:07:01.975Z,15.60
2023-01-02T13:09:44.472Z,15.60
2023-01-02T13:12:17.729Z,15.60
2023-01-02T13:14:46.800Z,15.60
2023-01-02T13:17:36.488Z,15.60
2023-01-02T13:20:03.161Z,15.60
2023-01-02T13:22:41.655Z,15.60
2023-01-02T13:25:17.542Z,15.60
2023-01-02T13:27:45.762Z,15.60
2023-01-02T13:30:34.346Z,15.60
2023-01-02T13:33:02.960Z,15.60
2023-01-02T13:35:37.016Z,15.60
2023-01-02T13:38:07.263Z,15.60
2023-01-02T13:40:35.033Z,15.60
2023-01-02T13:43:08.857Z,15.60
2023-01-02T13:45:44.008Z,15.60
2023-01-02T13:48:39.741Z,15.60
2023-01-02T13:51:07.926Z,15.60
2023-01-02T13:53:39.519Z,15.50
2023-01-02T13:56:26.469Z,15.60
2023-01-02T13:59:42.573Z,15.60
2023-01-02T14:02:18.110Z,15.50
2023-01-02T14:04:44.998Z,15.50
2023-01-02T14:07:27.508Z,15.50
2023-01-02T14:10:09.884Z,15.50
2023-01-02T14:12:53.302Z,15.50
2023-01-02T14:15:23.886Z,15.50
2023-01-02T14:18:04.843Z,15.50
2023-01-02T14:20:34.888Z,15.50
2023-01-02T14:23:05.856Z,15.50
2023-01-02T14:25:44.419Z,15.50
2023-01-02T14:28:20.926Z,15.50
2023-01-02T14:30:49.807Z,15.50
2023-01-02T14:33:29.352Z,15.50
2023-01-02T14:35:59.871Z,15.50
2023-01-02T14:38:30.396Z,15.50
2023-01-02T14:41:19.798Z,15.50
2023-01-02T14:43:48.086Z,15.50
2023-01-02T14:46:14.785Z,15.50
2023-01-02T14:48:55.895Z,15.50
2023-01-02T14:51:25.919Z,15.50
2023-01-02T14:54:00.159Z,15.50
2023-01-02T14:56:36.034Z,15.50
2023-01-02T14:59:04.870Z,15.50
2023-01-02T15:01:43.577Z,15.50
2023-01-02T15:04:39.923Z,15.50
2023-01-02T15:07:09.776Z,15.50
2023-01-02T15:09:41.743Z,15.50
2023-01-02T15:12:43.374Z,15.50
2023-01-02T15:15:12.434Z,15.40
2023-01-02T15:17:39.501Z,15.40
2023-01-02T15:20:08.103Z,15.40
2023-01-02T15:22:37.658Z,15.40
2023-01-02T15:25:04.979Z,15.40
2023-01-02T15:27:33.522Z,15.40
2023-01-02T15:30:28.639Z,15.40
2023-01-02T15:32:55.394Z,15.40
2023-01-02T15:35:32.655Z,15.40
2023-01-02T15:37:59.449Z,15.40
2023-01-02T15:40:35.449Z,15.40
2023-01-02T15:43:30.991Z,15.40
2023-01-02T15:45:58.997Z,15.20
2023-01-02T15:48:28.649Z,15.20
2023-01-02T15:50:58.917Z,15.20
2023-01-02T15:53:30.004Z,15.20
2023-01-02T15:55:58.540Z,15.20
2023-01-02T15:58:34.406Z,15.20
2023-01-02T16:01:10.127Z,15.20
2023-01-02T16:04:01.864Z,15.20
2023-01-02T16:06:26.351Z,15.20
2023-01-02T16:08:54.912Z,15.20
2023-01-02T16:11:22.824Z,15.30
2023-01-02T16:14:19.297Z,15.40
2023-01-02T16:16:50.173Z,15.50
2023-01-02T16:19:31.280Z,15.70
2023-01-02T16:22:19.757Z,15.90
2023-01-02T16:24:55.679Z,16.10
2023-01-02T16:27:29.424Z,16.40
2023-01-02T16:29:56.585Z,16.60
2023-01-02T16:32:28.455Z,16.80
2023-01-02T16:35:25.658Z,17.00
2023-01-02T16:38:25.471Z,17.20
2023-01-02T16:41:05.405Z,17.30
2023-01-02T16:43:38.241Z,17.40
2023-01-02T16:46:16.206Z,17.60
2023-01-02T16:48:43.824Z,17.70
2023-01-02T16:51:13.579Z,17.80
2023-01-02T16:53:43.307Z,17.90
2023-01-02T16:56:11.933Z,17.90
2023-01-02T16:58:38.794Z,18.00
2023-01-02T17:01:08.390Z,18.10
2023-01-02T17:03:35.146Z,18.20
2023-01-02T17:06:10.064Z,18.20
2023-01-02T17:08:36.860Z,18.30
2023-01-02T17:11:03.615Z,18.30
2023-01-02T17:13:30.420Z,18.40
2023-01-02T17:15:57.218Z,18.50
2023-01-02T17:18:24.396Z,18.50
2023-01-02T17:20:51.447Z,18.60
2023-01-02T17:23:19.474Z,18.60
2023-01-02T17:25:46.935Z,18.70
2023-01-02T17:28:14.259Z,18.70
2023-01-02T17:30:42.434Z,18.70
2023-01-02T17:33:09.273Z,18.70
2023-01-02T17:35:36.614Z,18.70
2023-01-02T17:38:03.552Z,18.70
2023-01-02T17:40:30.375Z,18.80
2023-01-02T17:42:57.085Z,18.80
2023-01-02T17:45:24.712Z,18.90
2023-01-02T17:48:07.537Z,18.90
2023-01-02T17:50:37.187Z,19.00
2023-01-02T17:53:07.039Z,19.20
2023-01-02T17:55:34.008Z,19.40
2023-01-02T17:58:01.007Z,19.70
2023-01-02T18:00:28.521Z,19.90
2023-01-02T18:02:55.429Z,20.20
2023-01-02T18:05:23.044Z,20.50
2023-01-02T18:07:50.074Z,20.70
2023-01-02T18:10:20.414Z,21.00
2023-01-02T18:12:49.587Z,21.20
2023-01-02T18:15:19.628Z,21.40
2023-01-02T18:17:49.991Z,21.60
2023-01-02T18:20:22.125Z,21.70
2023-01-02T18:22:50.880Z,21.90
2023-01-02T18:25:24.503Z,22.00
2023-01-02T18:28:01.365Z,22.20
2023-01-02T18:30:28.404Z,22.30
2023-01-02T18:33:13.665Z,22.30
2023-01-02T18:35:57.260Z,22.50
2023-01-02T18:38:34.712Z,22.50
2023-01-02T18:41:19.011Z,22.60
2023-01-02T18:43:46.256Z,22.70
2023-01-02T18:47:02.048Z,22.70
2023-01-02T18:49:28.823Z,22.70
2023-01-02T18:52:10.498Z,22.70
2023-01-02T18:54:41.546Z,22.80
2023-01-02T18:57:21.927Z,22.80
2023-01-02T18:59:51.874Z,22.80
2023-01-02T19:02:34.224Z,22.80
2023-01-02T19:05:01.843Z,22.90
2023-01-02T19:07:35.583Z,22.80
2023-01-02T19:10:17.902Z,22.80
2023-01-02T19:13:06.849Z,22.80
2023-01-02T19:15:43.446Z,22.80
2023-01-02T19:18:33.480Z,22.90
2023-01-02T19:21:09.639Z,22.90
2023-01-02T19:23:48.078Z,23.00
2023-01-02T19:26:35.350Z,23.00
2023-01-02T19:29:11.309Z,23.00
2023-01-02T19:31:47.007Z,23.00
2023-01-02T19:34:26.522Z,23.00
2023-01-02T19:37:35.570Z,23.00
2023-01-02T19:40:08.199Z,23.00
2023-01-02T19:42:38.851Z,23.00
2023-01-02T19:45:13.316Z,23.00
2023-01-02T19:47:40.523Z,23.00
2023-01-02T19:50:11.277Z,22.90
2023-01-02T19:52:38.516Z,22.90
2023-01-02T19:55:07.188Z,22.90
2023-01-02T19:57:34.782Z,22.80
2023-01-02T20:00:04.220Z,22.80
2023-01-02T20:02:38.839Z,22.70
2023-01-02T20:05:06.268Z,22.70
2023-01-02T20:07:33.266Z,22.60
2023-01-02T20:10:00.031Z,22.60
2023-01-02T20:12:40.468Z,22.50
2023-01-02T20:15:25.134Z,22.40
2023-01-02T20:17:53.206Z,22.40
2023-01-02T20:20:22.612Z,22.30
2023-01-02T20:22:51.384Z,22.30
2023-01-02T20:25:21.103Z,22.20
2023-01-02T20:27:48.060Z,22.20
2023-01-02T20:30:20.272Z,22.10
2023-01-02T20:32:50.565Z,22.10
2023-01-02T20:35:17.494Z,22.00
2023-01-02T20:37:44.216Z,21.90
2023-01-02T20:40:11.732Z,21.90
2023-01-02T20:42:38.578Z,21.80
2023-01-02T20:45:12.425Z,21.70
2023-01-02T20:47:39.148Z,21.70
2023-01-02T20:50:08.321Z,21.60
2023-01-02T20:52:35.289Z,21.50
2023-01-02T20:55:01.938Z,21.50
2023-01-02T20:57:29.679Z,21.40
2023-01-02T20:59:56.560Z,21.40
2023-01-02T21:02:24.049Z,21.30
2023-01-02T21:04:50.897Z,21.30
2023-01-02T21:07:17.612Z,21.20
2023-01-02T21:09:44.322Z,21.10
2023-01-02T21:12:31.083Z,21.00
2023-01-02T21:14:58.154Z,21.00
2023-01-02T21:17:25.252Z,20.90
2023-01-02T21:19:52.002Z,20.80
2023-01-02T21:22:18.714Z,20.80
2023-01-02T21:24:45.420Z,20.70
2023-01-02T21:27:13.483Z,20.70
2023-01-02T21:29:40.710Z,20.60
2023-01-02T21:32:07.783Z,20.50
2023-01-02T21:34:34.638Z,20.50
2023-01-02T21:37:01.329Z,20.40
2023-01-02T21:39:28.116Z,20.40
2023-01-02T21:42:13.722Z,20.30
2023-01-02T21:44:40.447Z,20.30
2023-01-02T21:47:07.497Z,20.20
2023-01-02T21:49:34.333Z,20.20
2023-01-02T21:52:01.334Z,20.10
2023-01-02T21:54:28.250Z,20.10
2023-01-02T21:56:55.075Z,20.00
2023-01-02T21:59:25.117Z,20.00
2023-01-02T22:01:56.272Z,19.90
2023-01-02T22:04:23.465Z,19.90
2023-01-02T22:07:30.068Z,19.80
2023-01-02T22:09:37.730Z,19.80
2023-01-02T22:12:07.011Z,19.70
2023-01-02T22:14:36.498Z,19.70
2023-01-02T22:17:06.452Z,19.60
2023-01-02T22:19:33.935Z,19.60
2023-01-02T22:22:01.011Z,19.50
2023-01-02T22:24:28.446Z,19.50
2023-01-02T22:27:00.051Z,19.40
2023-01-02T22:29:51.566Z,19.40
2023-01-02T22:32:15.646Z,19.30
2023-01-02T22:34:44.121Z,19.30
2023-01-02T22:37:14.554Z,19.20
2023-01-02T22:39:45.554Z,19.20
2023-01-02T22:42:59.683Z,19.20
2023-01-02T22:45:27.575Z,19.10
2023-01-02T22:48:00.538Z,19.10
2023-01-02T22:50:29.161Z,19.00
2023-01-02T22:52:56.320Z,19.00
2023-01-02T22:55:24.091Z,19.00
2023-01-02T22:57:52.157Z,18.90
2023-01-02T23:00:22.262Z,18.90
2023-01-02T23:02:50.051Z,18.80
2023-01-02T23:05:18.518Z,18.80
2023-01-02T23:07:46.131Z,18.80
2023-01-02T23:10:13.381Z,18.80
2023-01-02T23:12:40.162Z,18.70
2023-01-02T23:15:09.940Z,18.70
2023-01-02T23:17:55.505Z,18.70
2023-01-02T23:20:22.353Z,18.60
2023-01-02T23:22:50.333Z,18.60
2023-01-02T23:25:17.302Z,18.50
2023-01-02T23:27:44.003Z,18.50
2023-01-02T23:30:11.416Z,18.50
2023-01-02T23:32:38.187Z,18.40
2023-01-02T23:35:05.633Z,18.40
2023-01-02T23:37:32.480Z,18.40
2023-01-02T23:39:59.211Z,18.40
2023-01-02T23:42:25.971Z,18.40
2023-01-02T23:44:53.345Z,18.30
2023-01-02T23:47:20.021Z,18.30
2023-01-02T23:49:46.803Z,18.20
2023-01-02T23:52:13.586Z,18.20
2023-01-02T23:54:40.357Z,18.20
2023-01-02T23:57:07.214Z,18.20
2023-01-02T23:59:34.001Z,18.10
